Time;durP1;ratioP1;P1;durP2;ratioP2;P2;SDS_P1;SDS_P2;PMS_P1;PMS_P2;Temp;Humidity;BMP_temperature;BMP_pressure;BME280_temperature;BME280_humidity;BME280_pressure;Samples;Min_cycle;Max_cycle;Signal;HPM_P1;HPM_P2
2023/09/04 00:00:56;;;;;;;0.43;0.43;;;;;;;;;;5021515;28;20114;-80
2023/09/04 00:03:22;;;;;;;0.28;0.28;;;;;;;;;;5036959;28;20061;-79
2023/09/04 00:05:48;;;;;;;0.40;0.40;;;;;;;;;;5004832;28;20021;-79
2023/09/04 00:08:15;;;;;;;0.20;0.20;;;;;;;;;;5025147;28;20022;-81
2023/09/04 00:10:41;;;;;;;0.30;0.30;;;;;;;;;;5040174;28;20009;-79
2023/09/04 00:13:07;;;;;;;0.30;0.30;;;;;;;;;;5028357;28;20030;-79
2023/09/04 00:15:33;;;;;;;0.40;0.40;;;;;;;;;;5041582;28;20018;-80
2023/09/04 00:18:03;;;;;;;0.30;0.30;;;;;;;;;;5018744;28;20022;-79
2023/09/04 00:20:29;;;;;;;0.35;0.35;;;;;;;;;;5038153;28;20048;-78
2023/09/04 00:22:58;;;;;;;0.30;0.30;;;;;;;;;;5020720;28;20041;-79
2023/09/04 00:25:24;;;;;;;0.30;0.30;;;;;;;;;;5025657;28;20022;-79
2023/09/04 00:27:50;;;;;;;0.40;0.40;;;;;;;;;;5053201;28;20029;-78
2023/09/04 00:30:17;;;;;;;0.30;0.30;;;;;;;;;;5028682;28;20037;-79
2023/09/04 00:32:43;;;;;;;0.30;0.30;;;;;;;;;;5004331;28;20077;-78
2023/09/04 00:35:12;;;;;;;0.40;0.40;;;;;;;;;;5017213;28;20049;-78
2023/09/04 00:37:38;;;;;;;0.60;0.60;;;;;;;;;;5022918;28;20022;-78
2023/09/04 00:40:06;;;;;;;0.50;0.50;;;;;;;;;;5021666;28;20124;-79
2023/09/04 00:42:33;;;;;;;0.50;0.50;;;;;;;;;;5031491;28;20017;-78
2023/09/04 00:45:00;;;;;;;0.52;0.52;;;;;;;;;;5011485;28;20453;-79
2023/09/04 00:47:27;;;;;;;1.13;1.02;;;;;;;;;;5019011;28;20029;-78
2023/09/04 00:49:54;;;;;;;1.00;1.00;;;;;;;;;;4998849;28;20046;-79
2023/09/04 00:52:21;;;;;;;0.80;0.80;;;;;;;;;;5016216;28;20026;-79
2023/09/04 00:54:48;;;;;;;0.77;0.77;;;;;;;;;;5023004;28;20085;-79
2023/09/04 00:57:16;;;;;;;0.80;0.80;;;;;;;;;;5005442;28;20022;-79
2023/09/04 00:59:42;;;;;;;0.70;0.70;;;;;;;;;;5030532;28;20041;-79
2023/09/04 01:02:08;;;;;;;0.63;0.63;;;;;;;;;;5026912;28;20097;-79
2023/09/04 01:04:35;;;;;;;0.95;0.80;;;;;;;;;;5005261;28;20029;-77
2023/09/04 01:07:01;;;;;;;0.77;0.77;;;;;;;;;;5000428;28;20036;-78
2023/09/04 01:09:27;;;;;;;0.98;0.98;;;;;;;;;;5026063;28;20037;-76
2023/09/04 01:12:10;;;;;;;0.80;0.80;;;;;;;;;;5004683;28;20084;-78
2023/09/04 01:14:36;;;;;;;1.30;1.20;;;;;;;;;;5037329;28;20029;-78
2023/09/04 01:17:03;;;;;;;1.08;1.08;;;;;;;;;;5034358;28;20033;-77
2023/09/04 01:19:31;;;;;;;1.35;1.20;;;;;;;;;;5034197;28;20060;-78
2023/09/04 01:21:57;;;;;;;0.90;0.90;;;;;;;;;;5034456;28;20080;-79
2023/09/04 01:24:23;;;;;;;0.90;0.90;;;;;;;;;;5006496;28;20050;-79
2023/09/04 01:26:56;;;;;;;1.30;1.20;;;;;;;;;;5030040;28;20078;-78
2023/09/04 01:29:34;;;;;;;1.10;1.10;;;;;;;;;;5003603;28;20037;-78
2023/09/04 01:32:03;;;;;;;1.55;1.45;;;;;;;;;;5025741;28;20393;-78
2023/09/04 01:34:31;;;;;;;1.63;1.52;;;;;;;;;;4999028;28;20023;-78
2023/09/04 01:36:57;;;;;;;1.50;1.40;;;;;;;;;;5000839;28;20046;-79
2023/09/04 01:39:24;;;;;;;1.38;1.27;;;;;;;;;;5035533;28;20018;-78
2023/09/04 01:41:50;;;;;;;1.02;1.02;;;;;;;;;;5035749;28;20009;-78
2023/09/04 01:44:17;;;;;;;1.48;1.38;;;;;;;;;;5030933;28;20429;-79
2023/09/04 01:46:43;;;;;;;1.23;1.23;;;;;;;;;;5038293;28;20065;-78
2023/09/04 01:49:09;;;;;;;1.38;1.08;;;;;;;;;;5028742;28;20022;-79
2023/09/04 01:51:35;;;;;;;1.20;1.10;;;;;;;;;;5024313;28;20036;-79
2023/09/04 01:54:01;;;;;;;1.60;1.50;;;;;;;;;;5034559;28;20052;-79
2023/09/04 01:56:27;;;;;;;1.48;1.15;;;;;;;;;;5033254;28;20072;-80
2023/09/04 01:58:53;;;;;;;1.00;1.00;;;;;;;;;;5020507;28;20014;-80
2023/09/04 02:01:19;;;;;;;1.42;1.33;;;;;;;;;;5034918;28;20032;-78
2023/09/04 02:03:54;;;;;;;1.10;1.00;;;;;;;;;;4999332;28;20465;-78
2023/09/04 02:06:20;;;;;;;1.17;1.17;;;;;;;;;;5025391;28;20025;-78
2023/09/04 02:08:47;;;;;;;1.23;1.13;;;;;;;;;;5019923;28;20026;-78
2023/09/04 02:11:13;;;;;;;1.70;1.60;;;;;;;;;;5021392;28;20126;-78
2023/09/04 02:13:39;;;;;;;1.83;1.70;;;;;;;;;;5002649;28;20056;-79
2023/09/04 02:16:05;;;;;;;1.88;1.77;;;;;;;;;;5033329;28;20029;-78
2023/09/04 02:18:31;;;;;;;1.70;1.60;;;;;;;;;;5027810;28;20029;-78
2023/09/04 02:21:00;;;;;;;1.85;1.75;;;;;;;;;;5036366;28;20072;-77
2023/09/04 02:23:26;;;;;;;1.75;1.65;;;;;;;;;;5030810;28;20041;-76
2023/09/04 02:25:52;;;;;;;1.70;1.60;;;;;;;;;;5026890;28;20025;-79
2023/09/04 02:28:18;;;;;;;2.17;2.00;;;;;;;;;;5020572;28;20033;-79
2023/09/04 02:30:44;;;;;;;2.03;1.83;;;;;;;;;;5012659;28;20030;-79
2023/09/04 02:33:11;;;;;;;2.03;1.90;;;;;;;;;;5031376;28;20034;-79
2023/09/04 02:35:37;;;;;;;2.42;2.22;;;;;;;;;;5026400;28;20056;-79
2023/09/04 02:38:03;;;;;;;2.10;2.00;;;;;;;;;;5017388;28;20017;-79
2023/09/04 02:40:29;;;;;;;2.55;2.35;;;;;;;;;;5043827;28;20032;-80
2023/09/04 02:42:55;;;;;;;2.50;2.30;;;;;;;;;;5045299;28;20033;-79
2023/09/04 02:45:22;;;;;;;2.08;1.98;;;;;;;;;;5042004;28;20018;-79
2023/09/04 02:47:48;;;;;;;2.47;2.30;;;;;;;;;;5032732;28;20026;-78
2023/09/04 02:50:14;;;;;;;2.42;2.22;;;;;;;;;;5019685;28;20030;-77
2023/09/04 02:52:40;;;;;;;2.72;2.53;;;;;;;;;;5029638;28;20113;-79
2023/09/04 02:55:06;;;;;;;2.38;2.17;;;;;;;;;;5033823;28;20394;-80
2023/09/04 02:57:33;;;;;;;2.17;2.08;;;;;;;;;;5019936;28;20462;-78
2023/09/04 02:59:59;;;;;;;2.58;2.38;;;;;;;;;;5002480;28;20028;-78
2023/09/04 03:02:25;;;;;;;2.60;2.40;;;;;;;;;;5021023;28;20033;-79
2023/09/04 03:04:55;;;;;;;2.40;2.20;;;;;;;;;;5032613;28;20037;-78
2023/09/04 03:07:22;;;;;;;2.90;2.70;;;;;;;;;;5031459;28;20037;-78
2023/09/04 03:09:48;;;;;;;2.42;2.22;;;;;;;;;;5012238;28;20489;-78
2023/09/04 03:12:14;;;;;;;2.75;2.55;;;;;;;;;;5020359;28;20165;-80
2023/09/04 03:14:40;;;;;;;1.98;1.88;;;;;;;;;;5003592;28;20023;-80
2023/09/04 03:17:06;;;;;;;2.33;2.15;;;;;;;;;;5022193;28;20033;-81
2023/09/04 03:19:32;;;;;;;2.65;2.45;;;;;;;;;;5021788;28;20101;-79
2023/09/04 03:21:58;;;;;;;2.75;2.47;;;;;;;;;;5021623;28;20022;-79
2023/09/04 03:24:25;;;;;;;2.97;2.67;;;;;;;;;;5022106;28;20117;-81
2023/09/04 03:26:54;;;;;;;2.60;2.40;;;;;;;;;;5029800;28;20030;-79
2023/09/04 03:29:20;;;;;;;2.80;2.60;;;;;;;;;;5020006;28;20027;-80
2023/09/04 03:31:46;;;;;;;2.85;2.65;;;;;;;;;;5022219;28;20034;-79
2023/09/04 03:34:14;;;;;;;2.90;2.60;;;;;;;;;;5023055;28;20090;-79
2023/09/04 03:36:41;;;;;;;3.03;2.83;;;;;;;;;;5008831;28;20027;-80
2023/09/04 03:39:07;;;;;;;3.00;2.80;;;;;;;;;;5025016;28;20033;-80
2023/09/04 03:41:33;;;;;;;2.85;2.65;;;;;;;;;;5025607;28;20049;-78
2023/09/04 03:43:59;;;;;;;2.80;2.60;;;;;;;;;;5025417;28;20429;-78
2023/09/04 03:46:26;;;;;;;2.90;2.70;;;;;;;;;;5024754;28;20033;-78
2023/09/04 03:48:52;;;;;;;2.30;2.20;;;;;;;;;;5024766;28;20012;-78
2023/09/04 03:51:18;;;;;;;2.72;2.53;;;;;;;;;;5037904;28;20057;-78
2023/09/04 03:53:44;;;;;;;3.85;3.17;;;;;;;;;;5021843;28;20077;-78
2023/09/04 03:56:11;;;;;;;3.53;3.10;;;;;;;;;;5024397;28;20026;-79
2023/09/04 03:58:37;;;;;;;2.78;2.58;;;;;;;;;;5029754;28;20109;-79
2023/09/04 04:01:06;;;;;;;2.63;2.42;;;;;;;;;;5003485;28;20026;-79
2023/09/04 04:03:32;;;;;;;3.28;2.97;;;;;;;;;;5024706;28;20029;-80
2023/09/04 04:05:58;;;;;;;3.20;2.90;;;;;;;;;;4997582;28;20026;-77
2023/09/04 04:08:24;;;;;;;2.70;2.50;;;;;;;;;;5016058;28;20030;-76
2023/09/04 04:10:50;;;;;;;2.47;2.33;;;;;;;;;;5028503;28;20010;-77
2023/09/04 04:13:16;;;;;;;3.10;2.35;;;;;;;;;;5042445;28;20037;-76
2023/09/04 04:15:43;;;;;;;2.40;2.20;;;;;;;;;;5018729;28;20038;-75
2023/09/04 04:18:10;;;;;;;2.58;2.38;;;;;;;;;;5034923;28;20026;-75
2023/09/04 04:20:36;;;;;;;2.63;2.42;;;;;;;;;;5033898;28;20014;-75
2023/09/04 04:23:02;;;;;;;3.00;2.33;;;;;;;;;;5035139;28;20044;-76
2023/09/04 04:25:28;;;;;;;4.03;3.45;;;;;;;;;;5033641;28;20045;-75
2023/09/04 04:27:54;;;;;;;3.30;3.00;;;;;;;;;;5034173;28;20036;-77
2023/09/04 04:30:20;;;;;;;2.78;2.58;;;;;;;;;;5024733;28;20022;-76
2023/09/04 04:32:46;;;;;;;2.90;2.70;;;;;;;;;;5006224;28;20080;-77
2023/09/04 04:35:12;;;;;;;3.17;2.97;;;;;;;;;;5020118;28;20024;-78
2023/09/04 04:37:38;;;;;;;2.90;2.70;;;;;;;;;;5037127;28;20021;-77
2023/09/04 04:40:05;;;;;;;2.55;2.35;;;;;;;;;;5014957;28;20477;-78
2023/09/04 04:42:31;;;;;;;3.03;2.70;;;;;;;;;;5022268;28;20026;-77
2023/09/04 04:44:57;;;;;;;2.83;2.63;;;;;;;;;;5015647;28;20116;-77
2023/09/04 04:47:23;;;;;;;2.22;2.13;;;;;;;;;;4995922;28;20034;-77
2023/09/04 04:49:49;;;;;;;2.53;2.33;;;;;;;;;;5022217;28;20456;-76
2023/09/04 04:52:15;;;;;;;2.42;2.22;;;;;;;;;;5039788;28;20427;-77
2023/09/04 04:54:41;;;;;;;2.88;2.67;;;;;;;;;;5016755;28;20092;-77
2023/09/04 04:57:07;;;;;;;2.95;2.75;;;;;;;;;;5019752;28;20018;-78
2023/09/04 04:59:33;;;;;;;3.65;3.35;;;;;;;;;;5018872;28;20021;-77
2023/09/04 05:02:00;;;;;;;3.55;3.25;;;;;;;;;;5031784;28;20033;-77
2023/09/04 05:04:26;;;;;;;3.28;2.97;;;;;;;;;;5038534;28;20142;-77
2023/09/04 05:06:52;;;;;;;2.58;2.38;;;;;;;;;;4981806;28;20027;-77
2023/09/04 05:09:18;;;;;;;4.18;2.85;;;;;;;;;;5000219;28;20026;-77
2023/09/04 05:11:44;;;;;;;2.22;2.00;;;;;;;;;;5004611;28;20085;-77
2023/09/04 05:14:10;;;;;;;2.53;2.33;;;;;;;;;;5027180;28;20128;-77
2023/09/04 05:16:37;;;;;;;2.78;2.47;;;;;;;;;;5024640;28;20018;-77
2023/09/04 05:19:03;;;;;;;2.40;2.20;;;;;;;;;;4990771;28;20069;-78
2023/09/04 05:21:29;;;;;;;2.55;2.35;;;;;;;;;;5016495;28;20048;-77
2023/09/04 05:23:55;;;;;;;2.53;2.33;;;;;;;;;;5038422;28;20034;-79
2023/09/04 05:26:21;;;;;;;2.22;2.13;;;;;;;;;;5007876;28;20038;-79
2023/09/04 05:28:47;;;;;;;2.58;2.38;;;;;;;;;;5032227;28;20041;-79
2023/09/04 05:31:13;;;;;;;3.30;3.00;;;;;;;;;;5013832;28;20036;-77
2023/09/04 05:33:39;;;;;;;4.20;3.80;;;;;;;;;;5044230;28;20093;-78
2023/09/04 05:36:08;;;;;;;4.10;3.70;;;;;;;;;;5027541;28;20083;-76
2023/09/04 05:38:34;;;;;;;4.32;3.92;;;;;;;;;;5032532;28;20029;-78
2023/09/04 05:41:00;;;;;;;4.82;4.18;;;;;;;;;;5034082;28;20030;-77
2023/09/04 05:43:26;;;;;;;4.95;4.55;;;;;;;;;;5029043;28;20090;-77
2023/09/04 05:45:52;;;;;;;3.65;3.35;;;;;;;;;;5030321;28;20033;-77
2023/09/04 05:48:18;;;;;;;3.50;3.20;;;;;;;;;;5024588;28;20061;-77
2023/09/04 05:50:44;;;;;;;4.15;3.85;;;;;;;;;;5013186;28;20030;-78
2023/09/04 05:53:11;;;;;;;3.63;3.33;;;;;;;;;;5044055;28;20051;-77
2023/09/04 05:55:37;;;;;;;3.55;3.25;;;;;;;;;;5051644;28;20047;-76
2023/09/04 05:58:04;;;;;;;4.20;3.80;;;;;;;;;;5034634;28;20025;-77
2023/09/04 06:00:30;;;;;;;4.75;3.55;;;;;;;;;;5031652;28;20022;-77
2023/09/04 06:02:56;;;;;;;5.15;4.65;;;;;;;;;;5029475;28;20018;-77
2023/09/04 06:05:22;;;;;;;5.97;4.45;;;;;;;;;;5031261;28;20022;-78
2023/09/04 06:07:48;;;;;;;4.57;3.72;;;;;;;;;;5029658;28;20444;-78
2023/09/04 06:10:14;;;;;;;3.80;3.45;;;;;;;;;;5031074;28;20026;-78
2023/09/04 06:12:46;;;;;;;3.67;3.38;;;;;;;;;;5039150;28;20037;-78
2023/09/04 06:15:12;;;;;;;3.20;2.90;;;;;;;;;;5019533;28;20022;-78
2023/09/04 06:17:38;;;;;;;2.97;2.67;;;;;;;;;;5033682;28;20037;-77
2023/09/04 06:20:04;;;;;;;2.90;2.70;;;;;;;;;;5035171;28;20065;-78
2023/09/04 06:22:31;;;;;;;5.22;3.75;;;;;;;;;;5031325;28;20026;-78
2023/09/04 06:52:40;;;;;;;2.95;2.65;;;;;;;;;;5022465;28;20084;-78
2023/09/04 06:55:07;;;;;;;2.58;2.38;;;;;;;;;;5000052;28;20034;-78
2023/09/04 06:57:39;;;;;;;3.10;2.70;;;;;;;;;;5005885;28;20038;-78
2023/09/04 07:00:11;;;;;;;2.60;2.40;;;;;;;;;;4986499;28;20023;-78
2023/09/04 07:02:38;;;;;;;3.33;3.00;;;;;;;;;;5004517;28;20025;-78
2023/09/04 07:11:31;;;;;;;6.40;2.60;;;;;;;;;;5006119;28;20117;-78
2023/09/04 07:17:02;;;;;;;2.70;2.50;;;;;;;;;;5006738;28;20080;-78
2023/09/04 07:19:49;;;;;;;2.72;2.53;;;;;;;;;;4970380;28;20124;-78
2023/09/04 07:22:17;;;;;;;2.70;2.50;;;;;;;;;;4968512;29;20509;-78
2023/09/04 07:24:43;;;;;;;2.78;2.40;;;;;;;;;;4977274;28;20030;-79
2023/09/04 07:27:10;;;;;;;2.25;2.10;;;;;;;;;;4986736;28;20041;-78
2023/09/04 07:29:36;;;;;;;2.75;2.53;;;;;;;;;;4985405;28;20034;-77
2023/09/04 07:32:02;;;;;;;2.13;1.92;;;;;;;;;;4982612;28;20027;-78
2023/09/04 07:43:38;;;;;;;3.35;2.67;;;;;;;;;;4960520;28;20529;-77
2023/09/04 07:46:19;;;;;;;;;;;;;;;;;;;;;
2023/09/04 08:01:12;;;;;;;2.72;2.53;;;;;;;;;;5034044;28;20090;-77
2023/09/04 08:07:05;;;;;;;3.05;2.75;;;;;;;;;;4944919;29;20076;-79
2023/09/04 08:09:42;;;;;;;2.47;2.35;;;;;;;;;;4970923;28;20131;-78
2023/09/04 08:12:12;;;;;;;2.80;2.42;;;;;;;;;;5006285;28;20077;-78
2023/09/04 08:14:39;;;;;;;3.25;2.75;;;;;;;;;;5004033;28;20030;-79
2023/09/04 08:17:05;;;;;;;2.83;2.63;;;;;;;;;;4986043;28;20014;-78
2023/09/04 08:19:41;;;;;;;;;;;;;;;;;;;;;
2023/09/04 08:22:52;;;;;;;2.25;2.10;;;;;;;;;;5004302;28;20078;-78
2023/09/04 08:25:18;;;;;;;2.42;2.22;;;;;;;;;;5003703;28;20031;-80
2023/09/04 08:27:44;;;;;;;2.83;2.60;;;;;;;;;;5005601;28;20097;-78
2023/09/04 08:30:10;;;;;;;1.75;1.65;;;;;;;;;;5031933;28;20025;-79
2023/09/04 08:32:36;;;;;;;1.92;1.83;;;;;;;;;;5028822;28;20029;-78
2023/09/04 08:35:03;;;;;;;2.05;1.85;;;;;;;;;;5025252;28;20041;-77
2023/09/04 08:37:29;;;;;;;3.53;2.13;;;;;;;;;;5018535;28;20030;-77
2023/09/04 08:39:55;;;;;;;2.28;1.73;;;;;;;;;;5001226;28;20472;-77
2023/09/04 08:42:21;;;;;;;1.92;1.70;;;;;;;;;;5020589;28;20488;-78
2023/09/04 08:44:47;;;;;;;2.42;1.98;;;;;;;;;;5020040;28;20026;-78
2023/09/04 08:47:15;;;;;;;2.08;1.90;;;;;;;;;;5003950;28;20025;-77
2023/09/04 08:49:42;;;;;;;1.60;1.50;;;;;;;;;;5027088;28;20022;-78
2023/09/04 08:52:09;;;;;;;2.35;1.90;;;;;;;;;;4992226;28;20034;-79
2023/09/04 08:54:35;;;;;;;3.35;2.00;;;;;;;;;;5011396;28;20030;-78
2023/09/04 08:57:01;;;;;;;2.00;1.80;;;;;;;;;;5018843;28;20466;-78
2023/09/04 08:59:29;;;;;;;1.80;1.70;;;;;;;;;;5019587;28;20022;-78
2023/09/04 09:01:56;;;;;;;2.17;1.95;;;;;;;;;;5029034;28;20029;-78
2023/09/04 09:04:22;;;;;;;1.67;1.58;;;;;;;;;;4999537;28;20440;-77
2023/09/04 09:06:52;;;;;;;1.90;1.80;;;;;;;;;;5016802;28;20033;-77
2023/09/04 09:09:20;;;;;;;2.05;1.95;;;;;;;;;;5017751;28;20029;-78
2023/09/04 09:11:46;;;;;;;2.58;1.83;;;;;;;;;;4999169;28;20036;-77
2023/09/04 09:14:16;;;;;;;1.40;1.40;;;;;;;;;;5017061;28;20033;-78
2023/09/04 09:16:43;;;;;;;1.85;1.75;;;;;;;;;;5016861;28;20033;-78
2023/09/04 09:19:10;;;;;;;1.38;1.27;;;;;;;;;;5026154;28;20022;-78
2023/09/04 09:21:36;;;;;;;1.85;1.75;;;;;;;;;;5033455;28;20048;-77
2023/09/04 09:24:20;;;;;;;1.67;1.58;;;;;;;;;;5018400;28;20029;-76
2023/09/04 09:26:48;;;;;;;1.40;1.38;;;;;;;;;;5017029;28;20025;-77
2023/09/04 09:29:14;;;;;;;1.60;1.50;;;;;;;;;;4998674;28;20507;-77
2023/09/04 09:31:42;;;;;;;2.17;1.50;;;;;;;;;;5035337;28;20029;-78
2023/09/04 09:34:09;;;;;;;1.80;1.70;;;;;;;;;;5009643;28;20026;-77
2023/09/04 09:36:35;;;;;;;1.30;1.30;;;;;;;;;;4983691;28;20025;-78
2023/09/04 09:39:02;;;;;;;1.70;1.60;;;;;;;;;;5017313;28;20026;-78
2023/09/04 09:41:29;;;;;;;1.70;1.33;;;;;;;;;;5018319;28;20025;-78
2023/09/04 09:43:56;;;;;;;1.55;1.27;;;;;;;;;;5025559;28;20017;-78
2023/09/04 09:46:22;;;;;;;3.05;2.20;;;;;;;;;;5037950;28;20049;-78
2023/09/04 09:48:48;;;;;;;1.65;1.50;;;;;;;;;;5035541;28;20034;-78
2023/09/04 09:51:14;;;;;;;1.65;1.55;;;;;;;;;;5038355;28;20084;-77
2023/09/04 09:53:45;;;;;;;1.40;1.23;;;;;;;;;;5037161;28;20030;-77
2023/09/04 09:56:15;;;;;;;1.52;1.42;;;;;;;;;;5017798;28;20061;-78
2023/09/04 09:58:45;;;;;;;1.55;1.45;;;;;;;;;;5022942;28;20140;-76
2023/09/04 10:01:12;;;;;;;2.70;1.90;;;;;;;;;;5024505;28;20021;-79
2023/09/04 10:03:38;;;;;;;1.90;1.50;;;;;;;;;;5037977;28;20546;-78
2023/09/04 10:06:05;;;;;;;1.40;1.40;;;;;;;;;;5035574;28;20049;-78
2023/09/04 10:08:38;;;;;;;1.50;1.40;;;;;;;;;;5035607;28;20108;-79
2023/09/04 10:11:06;;;;;;;1.55;1.45;;;;;;;;;;5036167;28;20048;-78
2023/09/04 10:13:35;;;;;;;2.35;1.65;;;;;;;;;;5035330;28;20115;-77
2023/09/04 10:16:03;;;;;;;1.58;1.48;;;;;;;;;;4996364;28;20061;-78
2023/09/04 10:18:30;;;;;;;1.58;1.48;;;;;;;;;;4995891;28;20436;-77
2023/09/04 10:20:57;;;;;;;1.55;1.45;;;;;;;;;;4978073;28;20522;-77
2023/09/04 10:23:35;;;;;;;2.10;1.60;;;;;;;;;;4995477;28;20520;-78
2023/09/04 10:26:07;;;;;;;3.33;1.85;;;;;;;;;;4995383;28;20106;-77
2023/09/04 10:28:35;;;;;;;;;;;;;;;;;;5009121;28;20052;-78
2023/09/04 10:31:01;;;;;;;2.20;1.40;;;;;;;;;;5022406;28;19912;-77
2023/09/04 10:33:27;;;;;;;1.40;1.30;;;;;;;;;;5014605;28;20080;-78
2023/09/04 10:35:54;;;;;;;1.52;1.42;;;;;;;;;;5014765;28;20025;-78
2023/09/04 10:38:21;;;;;;;2.92;1.55;;;;;;;;;;5016552;28;20026;-77
2023/09/04 10:40:48;;;;;;;2.45;1.60;;;;;;;;;;4998537;28;20030;-77
2023/09/04 10:43:14;;;;;;;1.67;1.50;;;;;;;;;;5016192;28;20022;-77
2023/09/04 10:45:40;;;;;;;1.20;1.20;;;;;;;;;;5006807;28;20369;-79
2023/09/04 10:48:06;;;;;;;0.95;0.95;;;;;;;;;;4996027;28;20031;-79
2023/09/04 10:50:37;;;;;;;1.58;1.48;;;;;;;;;;4995194;28;20031;-78
2023/09/04 10:53:06;;;;;;;1.27;1.27;;;;;;;;;;4977459;28;20077;-78
2023/09/04 10:55:35;;;;;;;1.60;1.50;;;;;;;;;;5000224;28;20031;-77
2023/09/04 10:58:03;;;;;;;1.90;1.80;;;;;;;;;;4995659;28;20034;-77
2023/09/04 11:00:39;;;;;;;1.80;1.70;;;;;;;;;;5010715;28;20036;-77
2023/09/04 11:03:18;;;;;;;1.50;1.40;;;;;;;;;;5014601;28;21719;-77
2023/09/04 11:06:05;;;;;;;1.60;1.50;;;;;;;;;;5014886;28;20119;-77
2023/09/04 11:08:50;;;;;;;1.55;1.45;;;;;;;;;;5014593;28;20022;-76
2023/09/04 11:11:19;;;;;;;1.63;1.52;;;;;;;;;;5014037;28;20036;-77
2023/09/04 11:13:46;;;;;;;1.40;1.30;;;;;;;;;;5013864;28;20030;-77
2023/09/04 11:16:15;;;;;;;1.60;1.58;;;;;;;;;;5014083;28;20053;-78
2023/09/04 11:18:41;;;;;;;1.33;1.25;;;;;;;;;;5013443;28;20022;-76
2023/09/04 11:21:10;;;;;;;1.70;1.60;;;;;;;;;;5013662;28;20026;-78
2023/09/04 11:23:36;;;;;;;1.45;1.35;;;;;;;;;;5013604;28;20500;-76
2023/09/04 11:26:02;;;;;;;1.92;1.83;;;;;;;;;;5012576;28;20030;-77
2023/09/04 11:28:29;;;;;;;1.55;1.45;;;;;;;;;;5015336;28;20024;-77
2023/09/04 11:30:59;;;;;;;2.00;1.90;;;;;;;;;;5006459;28;20025;-77
2023/09/04 11:33:25;;;;;;;1.83;1.73;;;;;;;;;;5033474;28;20029;-76
2023/09/04 11:36:05;;;;;;;2.90;1.90;;;;;;;;;;5015369;28;20120;-77
2023/09/04 11:38:31;;;;;;;1.80;1.70;;;;;;;;;;4999886;28;20027;-77
2023/09/04 11:40:57;;;;;;;1.85;1.70;;;;;;;;;;5033137;28;20035;-77
2023/09/04 11:43:24;;;;;;;3.92;1.90;;;;;;;;;;5016486;28;20071;-78
2023/09/04 11:45:56;;;;;;;1.60;1.50;;;;;;;;;;5033147;28;20025;-76
2023/09/04 11:48:26;;;;;;;2.20;2.00;;;;;;;;;;5000853;28;20030;-76
2023/09/04 11:50:53;;;;;;;1.70;1.60;;;;;;;;;;5009744;28;20028;-77
2023/09/04 11:53:19;;;;;;;1.67;1.58;;;;;;;;;;5012933;28;20112;-76
2023/09/04 11:55:48;;;;;;;3.13;1.90;;;;;;;;;;5014108;28;20092;-78
2023/09/04 11:58:14;;;;;;;1.88;1.77;;;;;;;;;;5014985;28;20164;-77
2023/09/04 12:00:41;;;;;;;2.00;1.90;;;;;;;;;;5014938;28;20481;-78
2023/09/04 12:03:07;;;;;;;1.45;1.45;;;;;;;;;;5023512;28;20497;-78
2023/09/04 12:05:33;;;;;;;1.88;1.75;;;;;;;;;;5014454;28;20033;-78
2023/09/04 12:07:59;;;;;;;4.63;2.20;;;;;;;;;;5015168;28;20434;-79
2023/09/04 12:10:26;;;;;;;1.98;1.80;;;;;;;;;;4999630;28;20110;-79
2023/09/04 12:12:52;;;;;;;3.75;1.75;;;;;;;;;;4999937;28;20038;-78
2023/09/04 12:15:38;;;;;;;2.05;1.95;;;;;;;;;;5034337;28;20105;-78
2023/09/04 12:18:06;;;;;;;2.05;1.80;;;;;;;;;;5012785;28;20026;-78
2023/09/04 12:20:35;;;;;;;2.00;1.90;;;;;;;;;;5013734;28;20025;-78
2023/09/04 12:23:02;;;;;;;3.25;2.08;;;;;;;;;;5014483;28;20061;-78
2023/09/04 12:25:39;;;;;;;1.63;1.52;;;;;;;;;;4996254;28;20109;-80
2023/09/04 12:28:06;;;;;;;3.10;2.00;;;;;;;;;;5013744;28;20054;-78
2023/09/04 12:30:35;;;;;;;3.30;2.30;;;;;;;;;;4996252;28;20037;-78
2023/09/04 12:33:01;;;;;;;1.95;1.85;;;;;;;;;;4994961;28;20544;-79
2023/09/04 12:35:30;;;;;;;2.25;2.05;;;;;;;;;;4994692;28;20385;-79
2023/09/04 12:37:56;;;;;;;2.88;2.20;;;;;;;;;;5024609;28;20377;-77
2023/09/04 12:40:22;;;;;;;2.40;2.20;;;;;;;;;;5012913;28;20022;-78
2023/09/04 12:42:48;;;;;;;2.58;2.38;;;;;;;;;;5014662;28;20029;-79
2023/09/04 12:45:15;;;;;;;2.50;2.30;;;;;;;;;;4997256;28;20041;-79
2023/09/04 12:47:41;;;;;;;2.95;2.60;;;;;;;;;;5014907;28;20022;-78
2023/09/04 12:50:07;;;;;;;5.85;3.00;;;;;;;;;;5014860;28;20099;-78
2023/09/04 12:52:34;;;;;;;2.55;2.35;;;;;;;;;;5014912;28;20029;-78
2023/09/04 12:55:00;;;;;;;5.20;2.70;;;;;;;;;;4996624;28;20038;-77
2023/09/04 12:57:27;;;;;;;4.95;2.67;;;;;;;;;;5020082;28;20034;-79
2023/09/04 12:59:54;;;;;;;2.45;2.30;;;;;;;;;;5035788;28;20014;-79
2023/09/04 13:02:21;;;;;;;2.38;2.22;;;;;;;;;;5021809;28;20445;-79
2023/09/04 13:04:47;;;;;;;2.53;2.33;;;;;;;;;;5018768;28;20033;-78
2023/09/04 13:07:13;;;;;;;2.72;2.50;;;;;;;;;;4999707;28;20064;-77
2023/09/04 13:09:39;;;;;;;2.88;2.38;;;;;;;;;;5015165;28;20532;-78
2023/09/04 13:12:06;;;;;;;4.93;2.30;;;;;;;;;;5019772;28;20030;-79
2023/09/04 13:14:32;;;;;;;2.17;2.08;;;;;;;;;;5018089;28;20026;-76
2023/09/04 13:16:58;;;;;;;2.83;2.60;;;;;;;;;;5021064;28;20033;-79
2023/09/04 13:19:24;;;;;;;2.97;2.70;;;;;;;;;;5020834;28;20026;-78
2023/09/04 13:21:50;;;;;;;2.95;2.70;;;;;;;;;;5020766;28;20052;-78
2023/09/04 13:24:16;;;;;;;2.80;2.20;;;;;;;;;;5022937;28;20041;-79
2023/09/04 13:26:43;;;;;;;2.55;2.35;;;;;;;;;;5026614;28;20026;-79
2023/09/04 13:29:09;;;;;;;4.70;2.58;;;;;;;;;;5025888;28;20018;-79
2023/09/04 13:31:35;;;;;;;2.88;2.60;;;;;;;;;;5006472;28;20037;-79
2023/09/04 13:34:01;;;;;;;5.28;2.60;;;;;;;;;;5022630;28;20029;-79
2023/09/04 13:36:28;;;;;;;2.55;2.35;;;;;;;;;;5030508;28;20018;-79
2023/09/04 13:38:54;;;;;;;2.85;2.63;;;;;;;;;;5032282;28;20052;-78
2023/09/04 13:41:20;;;;;;;2.80;2.60;;;;;;;;;;5027596;28;20397;-78
2023/09/04 13:43:46;;;;;;;2.63;2.42;;;;;;;;;;5019677;28;20077;-80
2023/09/04 13:46:12;;;;;;;2.70;2.50;;;;;;;;;;5008820;28;20064;-79
2023/09/04 13:48:38;;;;;;;2.85;2.53;;;;;;;;;;5030710;28;20033;-79
2023/09/04 13:51:05;;;;;;;2.53;2.33;;;;;;;;;;5025554;28;20033;-78
2023/09/04 13:53:31;;;;;;;3.42;2.40;;;;;;;;;;5002622;28;20049;-78
2023/09/04 13:55:57;;;;;;;3.58;2.80;;;;;;;;;;5023578;28;20046;-78
2023/09/04 13:58:23;;;;;;;2.88;2.45;;;;;;;;;;5032866;28;20047;-79
2023/09/04 14:00:49;;;;;;;3.00;2.75;;;;;;;;;;5029377;28;20033;-79
2023/09/04 14:03:15;;;;;;;2.70;2.50;;;;;;;;;;5021349;28;20050;-79
2023/09/04 14:05:41;;;;;;;2.72;2.53;;;;;;;;;;5001309;28;20038;-78
2023/09/04 14:08:09;;;;;;;3.00;2.80;;;;;;;;;;5002371;28;20074;-78
2023/09/04 14:10:38;;;;;;;2.60;2.30;;;;;;;;;;5005323;28;20041;-78
2023/09/04 14:13:05;;;;;;;2.97;2.40;;;;;;;;;;5018015;28;20049;-79
2023/09/04 14:15:31;;;;;;;2.33;2.20;;;;;;;;;;5024823;28;20033;-79
2023/09/04 14:17:57;;;;;;;2.40;2.25;;;;;;;;;;5032380;28;20079;-77
2023/09/04 14:20:23;;;;;;;12.48;2.78;;;;;;;;;;5005919;28;20370;-78
2023/09/04 14:22:49;;;;;;;2.45;2.20;;;;;;;;;;5008211;28;20026;-79
2023/09/04 14:25:15;;;;;;;3.40;2.20;;;;;;;;;;4996878;28;20054;-78
2023/09/04 14:27:41;;;;;;;5.07;3.15;;;;;;;;;;4997023;28;20096;-78
2023/09/04 14:30:07;;;;;;;2.60;2.40;;;;;;;;;;5009336;28;20113;-77
2023/09/04 14:32:34;;;;;;;3.03;2.70;;;;;;;;;;5029730;28;20101;-77
2023/09/04 14:35:01;;;;;;;2.40;2.20;;;;;;;;;;5014706;28;20041;-77
2023/09/04 14:37:27;;;;;;;3.00;2.70;;;;;;;;;;4980406;28;20022;-77
2023/09/04 14:40:00;;;;;;;3.83;3.03;;;;;;;;;;4996926;28;20029;-77
2023/09/04 14:42:27;;;;;;;5.30;2.55;;;;;;;;;;4979164;28;20026;-77
2023/09/04 14:44:53;;;;;;;3.00;2.70;;;;;;;;;;5015498;28;20030;-78
2023/09/04 14:47:20;;;;;;;2.13;2.03;;;;;;;;;;4998763;28;20037;-78
2023/09/04 14:49:49;;;;;;;2.38;2.17;;;;;;;;;;5016512;28;20030;-77
2023/09/04 14:52:15;;;;;;;2.40;2.20;;;;;;;;;;5016193;28;20030;-77
2023/09/04 14:54:41;;;;;;;2.45;2.25;;;;;;;;;;5017082;28;20038;-78
2023/09/04 14:57:07;;;;;;;2.60;2.40;;;;;;;;;;5016870;28;20030;-77
2023/09/04 14:59:33;;;;;;;2.50;2.30;;;;;;;;;;5018030;28;20037;-78
2023/09/04 15:01:59;;;;;;;2.38;2.15;;;;;;;;;;4998215;28;20030;-77
2023/09/04 15:04:26;;;;;;;2.50;2.30;;;;;;;;;;5007182;28;20078;-77
2023/09/04 15:06:52;;;;;;;2.60;2.40;;;;;;;;;;4996307;28;20027;-77
2023/09/04 15:09:18;;;;;;;2.63;2.42;;;;;;;;;;4996450;28;20023;-77
2023/09/04 15:11:44;;;;;;;2.60;2.40;;;;;;;;;;4996200;28;20034;-78
2023/09/04 15:14:10;;;;;;;2.42;2.22;;;;;;;;;;4998865;28;20026;-79
2023/09/04 15:16:36;;;;;;;2.97;2.50;;;;;;;;;;5008718;28;20022;-78
2023/09/04 15:19:02;;;;;;;2.45;2.25;;;;;;;;;;4983369;28;20032;-79
2023/09/04 15:21:28;;;;;;;2.03;1.92;;;;;;;;;;5000014;28;20018;-79
2023/09/04 15:23:54;;;;;;;2.08;1.98;;;;;;;;;;4984512;28;20030;-79
2023/09/04 15:26:20;;;;;;;2.80;2.38;;;;;;;;;;5019270;28;20044;-78
2023/09/04 15:28:46;;;;;;;2.10;2.00;;;;;;;;;;4999022;28;20054;-78
2023/09/04 15:31:13;;;;;;;2.25;2.15;;;;;;;;;;5012025;28;20037;-79
2023/09/04 15:33:39;;;;;;;2.10;2.00;;;;;;;;;;5001678;28;20026;-79
2023/09/04 15:36:05;;;;;;;2.50;2.30;;;;;;;;;;5018011;28;20424;-79
2023/09/04 15:38:34;;;;;;;3.17;2.42;;;;;;;;;;5001859;28;20018;-79
2023/09/04 15:41:00;;;;;;;2.13;2.03;;;;;;;;;;5002527;28;20512;-78
2023/09/04 15:43:27;;;;;;;2.08;1.98;;;;;;;;;;5021910;28;20034;-79
2023/09/04 15:45:54;;;;;;;2.15;2.05;;;;;;;;;;5009368;28;20026;-79
2023/09/04 15:48:20;;;;;;;2.60;2.40;;;;;;;;;;4999452;28;20026;-79